Time;durP1;ratioP1;P1;durP2;ratioP2;P2;SDS_P1;SDS_P2;PMS_P1;PMS_P2;Temp;Humidity;BMP_temperature;BMP_pressure;BME280_temperature;BME280_humidity;BME280_pressure;Samples;Min_cycle;Max_cycle;Signal;HPM_P1;HPM_P2
2023/01/10 00:00:47;;;;;;;14.90;4.63;;;5.10;93.90;;;;;;5026110;28;20049;-48
2023/01/10 00:03:14;;;;;;;12.45;4.75;;;5.00;93.70;;;;;;5032725;28;20039;-47
2023/01/10 00:05:39;;;;;;;12.23;4.18;;;5.00;93.80;;;;;;5033865;28;20021;-48
2023/01/10 00:08:07;;;;;;;15.93;6.13;;;5.00;93.70;;;;;;5014750;28;20180;-48
2023/01/10 00:10:38;;;;;;;15.35;5.50;;;5.00;93.70;;;;;;5014224;28;20028;-50
2023/01/10 00:13:23;;;;;;;16.85;5.85;;;5.00;93.70;;;;;;5014361;28;20060;-48
2023/01/10 00:15:56;;;;;;;10.63;3.72;;;4.90;93.60;;;;;;5026106;28;20067;-50
2023/01/10 00:18:23;;;;;;;12.48;4.50;;;4.90;93.60;;;;;;5014006;28;20041;-49
2023/01/10 00:20:49;;;;;;;13.07;4.78;;;4.80;93.50;;;;;;5024175;28;20069;-52
2023/01/10 00:23:16;;;;;;;13.80;4.40;;;4.80;93.50;;;;;;5013949;28;20073;-48
2023/01/10 00:25:42;;;;;;;10.02;4.43;;;4.80;93.70;;;;;;5012349;28;20049;-50
2023/01/10 00:28:18;;;;;;;10.68;5.15;;;4.80;93.70;;;;;;5031486;28;20034;-47
2023/01/10 00:31:05;;;;;;;16.48;4.35;;;4.90;93.80;;;;;;5031824;28;20064;-49
2023/01/10 00:33:33;;;;;;;10.82;3.88;;;4.90;93.70;;;;;;5026415;28;20469;-51
2023/01/10 00:36:01;;;;;;;14.50;3.88;;;4.90;93.80;;;;;;5012619;28;20126;-53
2023/01/10 00:38:29;;;;;;;8.65;3.78;;;4.90;94.00;;;;;;5012441;28;20030;-48
2023/01/10 00:40:56;;;;;;;9.27;4.00;;;5.00;94.00;;;;;;5013923;28;20049;-49
2023/01/10 00:46:10;;;;;;;7.03;3.55;;;5.00;94.00;;;;;;5017392;28;20091;-53
2023/01/10 00:48:37;;;;;;;9.57;4.85;;;5.00;94.10;;;;;;5013401;28;20121;-63
2023/01/10 00:51:07;;;;;;;8.75;3.38;;;5.10;94.20;;;;;;5017718;28;20029;-62
2023/01/10 00:53:35;;;;;;;7.88;3.55;;;5.20;94.30;;;;;;5033102;28;20030;-59
2023/01/10 00:56:02;;;;;;;14.15;3.55;;;5.30;94.40;;;;;;5026024;28;20117;-59
2023/01/10 00:58:29;;;;;;;12.10;3.60;;;5.40;94.40;;;;;;5012928;28;20432;-58
2023/01/10 01:00:55;;;;;;;8.73;3.78;;;5.40;94.40;;;;;;5026039;28;20128;-57
2023/01/10 01:03:22;;;;;;;10.43;3.97;;;5.40;94.30;;;;;;5031516;28;20099;-58
2023/01/10 01:05:49;;;;;;;17.73;4.40;;;5.30;94.20;;;;;;5027522;28;20072;-57
2023/01/10 01:08:18;;;;;;;14.07;2.97;;;5.30;94.20;;;;;;5011990;28;20112;-57
2023/01/10 01:10:45;;;;;;;12.25;2.60;;;5.20;94.10;;;;;;5013023;28;20591;-56
2023/01/10 01:13:20;;;;;;;8.63;2.88;;;5.10;94.00;;;;;;5017913;28;20045;-52
2023/01/10 01:15:48;;;;;;;15.13;4.40;;;5.20;94.10;;;;;;5030941;28;20411;-56
2023/01/10 01:18:17;;;;;;;6.03;2.92;;;5.10;94.10;;;;;;5032562;28;20026;-56
2023/01/10 01:20:51;;;;;;;;;;;5.20;94.10;;;;;;5032946;28;20029;-56
2023/01/10 01:23:18;;;;;;;14.10;3.03;;;5.20;94.20;;;;;;5022377;28;20308;-56
2023/01/10 01:25:44;;;;;;;9.95;2.78;;;5.20;94.20;;;;;;5012555;28;20089;-53
2023/01/10 01:28:14;;;;;;;16.02;3.05;;;5.20;94.20;;;;;;5012093;28;20037;-55
2023/01/10 01:30:41;;;;;;;11.30;2.80;;;5.20;94.10;;;;;;5016212;28;20049;-54
2023/01/10 01:33:08;;;;;;;13.20;2.58;;;5.20;94.10;;;;;;5013099;28;20030;-55
2023/01/10 01:35:35;;;;;;;12.07;2.53;;;5.20;94.10;;;;;;5013135;28;20033;-53
2023/01/10 01:38:04;;;;;;;10.25;4.95;;;5.20;94.20;;;;;;5011373;28;20060;-55
2023/01/10 01:40:31;;;;;;;9.00;4.95;;;5.20;94.20;;;;;;5013017;28;20038;-55
2023/01/10 01:42:58;;;;;;;10.82;3.17;;;5.20;94.20;;;;;;5011886;28;20026;-52
2023/01/10 01:45:45;;;;;;;10.15;2.38;;;5.20;94.20;;;;;;5024917;28;20112;-53
2023/01/10 01:48:35;;;;;;;9.27;3.47;;;5.20;94.20;;;;;;5032662;28;20060;-54
2023/01/10 01:51:25;;;;;;;13.25;2.38;;;5.30;94.20;;;;;;5014175;28;20057;-54
2023/01/10 01:54:12;;;;;;;14.75;3.50;;;5.30;94.30;;;;;;5011900;28;20044;-54
2023/01/10 01:56:44;;;;;;;11.30;3.70;;;5.40;94.40;;;;;;5012660;28;20313;-56
2023/01/10 01:59:35;;;;;;;14.07;3.00;;;5.40;94.40;;;;;;5016422;28;20447;-57
2023/01/10 02:02:20;;;;;;;12.82;3.35;;;5.50;94.40;;;;;;5032647;28;20061;-57
2023/01/10 02:05:07;;;;;;;11.63;3.38;;;5.50;94.40;;;;;;5016821;28;20040;-60
2023/01/10 02:07:37;;;;;;;10.18;3.08;;;5.50;94.30;;;;;;5012997;28;20512;-58
2023/01/10 02:10:14;;;;;;;14.40;3.55;;;5.60;94.30;;;;;;5013477;28;20127;-58
2023/01/10 02:12:42;;;;;;;18.40;4.55;;;5.60;94.20;;;;;;5012827;28;20026;-57
2023/01/10 02:15:10;;;;;;;11.70;2.92;;;5.50;94.20;;;;;;5030929;28;20040;-57
2023/01/10 02:17:40;;;;;;;12.40;3.00;;;5.60;94.20;;;;;;5028473;28;20025;-57
2023/01/10 02:20:11;;;;;;;;;;;5.50;94.10;;;;;;5013483;28;20022;-55
2023/01/10 02:23:08;;;;;;;11.45;3.60;;;5.50;94.00;;;;;;5025100;28;19924;-56
2023/01/10 02:26:24;;;;;;;8.75;3.35;;;5.40;93.90;;;;;;5012761;28;20034;-56
2023/01/10 02:29:27;;;;;;;19.40;4.45;;;5.40;93.90;;;;;;5014169;28;20053;-55
2023/01/10 02:32:37;;;;;;;14.80;3.25;;;5.30;93.80;;;;;;5012326;28;20044;-55
2023/01/10 02:35:34;;;;;;;13.88;3.15;;;5.20;93.70;;;;;;5012405;28;20107;-54
2023/01/10 02:38:34;;;;;;;11.55;3.22;;;5.20;93.90;;;;;;5012876;28;20463;-52
2023/01/10 02:41:44;;;;;;;13.52;3.05;;;5.20;93.90;;;;;;5012706;28;20160;-53
2023/01/10 02:44:22;;;;;;;;;;;5.30;93.90;;;;;;5025979;28;20124;-51
2023/01/10 02:46:51;;;;;;;14.20;3.03;;;5.30;94.00;;;;;;5031556;28;20277;-52
2023/01/10 02:49:18;;;;;;;13.10;2.60;;;5.30;94.00;;;;;;5024322;28;20083;-51
2023/01/10 02:51:44;;;;;;;16.80;4.90;;;5.40;94.10;;;;;;5035157;28;20053;-50
2023/01/10 02:54:29;;;;;;;10.27;2.80;;;5.40;94.00;;;;;;5027390;28;20030;-49
2023/01/10 02:57:39;;;;;;;20.45;3.50;;;5.40;93.90;;;;;;5029279;28;20033;-50
2023/01/10 03:00:11;;;;;;;17.60;6.07;;;5.40;93.90;;;;;;5033584;28;20049;-54
2023/01/10 03:02:49;;;;;;;15.57;3.65;;;5.30;93.80;;;;;;5031580;28;20041;-53
2023/01/10 03:05:51;;;;;;;12.20;2.60;;;5.20;93.70;;;;;;5015029;28;20053;-53
2023/01/10 03:08:24;;;;;;;10.55;3.17;;;5.20;93.70;;;;;;5014703;28;20033;-54
2023/01/10 03:11:38;;;;;;;13.85;3.63;;;5.10;93.60;;;;;;5018486;28;20025;-50
2023/01/10 03:14:18;;;;;;;11.55;2.60;;;5.00;93.40;;;;;;5026712;28;20060;-53
2023/01/10 03:17:09;;;;;;;13.15;3.42;;;4.90;93.30;;;;;;5034622;28;20034;-51
2023/01/10 03:19:46;;;;;;;12.45;2.47;;;4.80;93.40;;;;;;5020658;28;20406;-52
2023/01/10 03:22:14;;;;;;;11.30;2.78;;;4.80;93.40;;;;;;5014659;28;20113;-54
2023/01/10 03:24:48;;;;;;;10.65;3.08;;;4.70;93.40;;;;;;5015410;28;20049;-54
2023/01/10 03:27:40;;;;;;;16.55;5.43;;;4.70;93.40;;;;;;5014834;28;20034;-53
2023/01/10 03:30:38;;;;;;;20.27;3.00;;;4.70;93.50;;;;;;5034814;28;20033;-54
2023/01/10 03:33:05;;;;;;;19.60;4.95;;;4.70;93.50;;;;;;5034850;28;20033;-56
2023/01/10 03:35:52;;;;;;;13.80;2.78;;;4.60;93.60;;;;;;5034444;28;20355;-52
2023/01/10 03:38:31;;;;;;;15.35;3.88;;;4.60;93.50;;;;;;5014897;28;20048;-52
2023/01/10 03:41:15;;;;;;;9.65;2.80;;;4.60;93.50;;;;;;5014947;28;20037;-56
2023/01/10 03:47:12;;;;;;;11.45;2.88;;;4.50;93.50;;;;;;5023806;28;20372;-55
2023/01/10 03:49:46;;;;;;;10.65;3.03;;;4.50;93.40;;;;;;5023357;28;20021;-49
2023/01/10 03:52:16;;;;;;;8.73;2.75;;;4.40;93.40;;;;;;5029922;28;20363;-56
2023/01/10 03:54:44;;;;;;;14.15;2.63;;;4.40;93.50;;;;;;5013428;28;20034;-54
2023/01/10 03:57:22;;;;;;;15.13;4.15;;;4.40;93.50;;;;;;5013211;28;20049;-56
2023/01/10 03:59:53;;;;;;;14.98;3.72;;;4.40;93.40;;;;;;5030344;28;20461;-52
2023/01/10 04:02:19;;;;;;;17.92;3.60;;;4.40;93.50;;;;;;5033390;28;20355;-54
2023/01/10 04:04:46;;;;;;;17.92;4.47;;;4.40;93.50;;;;;;5017360;28;20034;-54
2023/01/10 04:07:13;;;;;;;15.98;3.83;;;4.40;93.60;;;;;;5033579;28;20017;-54
2023/01/10 04:09:41;;;;;;;11.93;3.47;;;4.40;93.60;;;;;;5034267;28;20738;-54
2023/01/10 04:12:07;;;;;;;15.75;3.40;;;4.40;93.50;;;;;;5028278;28;20026;-52
2023/01/10 04:14:37;;;;;;;17.25;4.32;;;4.40;93.60;;;;;;5031684;28;20541;-55
2023/01/10 04:17:04;;;;;;;16.92;3.03;;;4.40;93.60;;;;;;5033779;28;20188;-54
2023/01/10 04:19:31;;;;;;;14.00;3.40;;;4.40;93.50;;;;;;5025156;28;20115;-55
2023/01/10 04:21:58;;;;;;;14.30;3.30;;;4.40;93.60;;;;;;4996448;28;20037;-56
2023/01/10 04:24:25;;;;;;;13.55;2.97;;;4.40;93.50;;;;;;5012491;28;20845;-56
2023/01/10 04:26:52;;;;;;;14.75;3.55;;;4.30;93.50;;;;;;5015012;28;20022;-56
2023/01/10 04:29:18;;;;;;;26.80;4.03;;;4.30;93.50;;;;;;5028946;28;20448;-55
2023/01/10 04:31:45;;;;;;;15.63;4.07;;;4.30;93.50;;;;;;5013488;28;20464;-57
2023/01/10 04:34:12;;;;;;;17.73;3.70;;;4.30;93.60;;;;;;5014026;28;20041;-56
2023/01/10 04:36:39;;;;;;;22.20;3.55;;;4.40;93.60;;;;;;5012670;28;20030;-55
2023/01/10 04:39:07;;;;;;;15.38;3.63;;;4.40;93.70;;;;;;5012743;28;20033;-54
2023/01/10 04:41:39;;;;;;;13.45;3.33;;;4.50;93.80;;;;;;5015618;28;20105;-54
2023/01/10 04:44:06;;;;;;;11.77;4.03;;;4.50;93.90;;;;;;5014348;28;20034;-55
2023/01/10 04:46:33;;;;;;;16.55;3.15;;;4.60;93.90;;;;;;5013180;28;20109;-53
2023/01/10 04:48:59;;;;;;;16.15;4.82;;;4.70;93.90;;;;;;5013484;28;20022;-55
2023/01/10 04:51:27;;;;;;;8.40;2.65;;;4.70;93.80;;;;;;5014001;28;20045;-55
2023/01/10 04:53:57;;;;;;;15.90;3.45;;;4.70;93.90;;;;;;5013419;28;20112;-53
2023/01/10 04:56:26;;;;;;;20.13;4.15;;;4.70;93.90;;;;;;5013089;28;20044;-57
2023/01/10 04:58:53;;;;;;;18.83;3.40;;;4.80;94.00;;;;;;5032222;28;20029;-60
2023/01/10 05:01:22;;;;;;;21.88;4.75;;;4.90;94.00;;;;;;5027181;28;20370;-58
2023/01/10 05:03:52;;;;;;;16.88;3.75;;;4.90;94.00;;;;;;5013160;28;20030;-57
2023/01/10 05:06:20;;;;;;;16.40;3.42;;;4.90;94.00;;;;;;5029514;28;20088;-58
2023/01/10 05:08:46;;;;;;;16.40;3.65;;;4.90;93.90;;;;;;5011160;28;20037;-57
2023/01/10 05:11:15;;;;;;;16.85;4.50;;;4.90;93.90;;;;;;5013255;28;20343;-58
2023/01/10 05:13:42;;;;;;;11.70;2.88;;;4.90;93.90;;;;;;5028597;28;20377;-58
2023/01/10 05:16:09;;;;;;;21.63;4.25;;;4.90;93.90;;;;;;5027723;28;20038;-55
2023/01/10 05:18:39;;;;;;;10.50;3.53;;;4.90;94.00;;;;;;5032782;28;20041;-57
2023/01/10 05:21:11;;;;;;;14.40;3.33;;;5.00;93.90;;;;;;5022065;28;20109;-57
2023/01/10 05:23:39;;;;;;;15.57;3.65;;;5.00;94.00;;;;;;5012912;28;20061;-56
2023/01/10 05:26:11;;;;;;;17.48;3.72;;;5.10;94.00;;;;;;5012817;28;20022;-56
2023/01/10 05:28:38;;;;;;;15.82;2.83;;;5.10;94.00;;;;;;5025797;28;20032;-56
2023/01/10 05:31:15;;;;;;;10.73;3.33;;;5.10;94.00;;;;;;5017519;28;20030;-56
2023/01/10 05:33:47;;;;;;;45.50;6.30;;;5.10;94.00;;;;;;5032726;28;20064;-56
2023/01/10 05:36:14;;;;;;;15.60;2.97;;;5.20;94.00;;;;;;5032505;28;20025;-56
2023/01/10 05:38:41;;;;;;;15.00;3.22;;;5.20;94.00;;;;;;5031219;28;20022;-53
2023/01/10 05:41:09;;;;;;;13.55;3.80;;;5.20;93.90;;;;;;5012944;28;20462;-54
2023/01/10 05:43:35;;;;;;;17.30;3.50;;;5.20;94.00;;;;;;5032037;28;20127;-52
2023/01/10 05:46:03;;;;;;;10.35;2.92;;;5.30;94.00;;;;;;5029985;28;20533;-51
2023/01/10 05:48:30;;;;;;;13.13;3.70;;;5.30;93.90;;;;;;5012825;28;20592;-55
2023/01/10 05:50:59;;;;;;;20.80;4.72;;;5.30;94.00;;;;;;5011515;28;20026;-53
2023/01/10 05:53:26;;;;;;;15.57;3.15;;;5.30;93.90;;;;;;5011818;28;20034;-51
2023/01/10 05:55:57;;;;;;;17.38;4.82;;;5.30;93.90;;;;;;5012296;28;20439;-55
2023/01/10 05:58:25;;;;;;;14.80;3.40;;;5.30;93.90;;;;;;5027153;28;20033;-54
2023/01/10 06:00:53;;;;;;;11.80;3.35;;;5.40;93.90;;;;;;5030640;28;20159;-52
2023/01/10 06:03:20;;;;;;;17.67;4.90;;;5.40;93.90;;;;;;5020645;28;20030;-52
2023/01/10 06:05:47;;;;;;;11.18;3.30;;;5.40;93.90;;;;;;5020504;28;20355;-50
2023/01/10 06:08:13;;;;;;;14.77;3.30;;;5.40;93.90;;;;;;5020628;28;20030;-54
2023/01/10 06:10:42;;;;;;;19.75;4.53;;;5.40;93.80;;;;;;5011358;28;20022;-55
2023/01/10 06:13:10;;;;;;;14.35;3.58;;;5.40;93.70;;;;;;5016146;28;20049;-51
2023/01/10 06:15:38;;;;;;;9.45;3.00;;;5.30;93.60;;;;;;5027590;28;20057;-55
2023/01/10 06:18:05;;;;;;;15.98;3.75;;;5.20;93.50;;;;;;5012052;28;20061;-53
2023/01/10 06:20:32;;;;;;;12.52;3.28;;;5.20;93.50;;;;;;5012716;28;20049;-55
2023/01/10 06:23:03;;;;;;;14.40;3.42;;;5.10;93.50;;;;;;5022138;28;20026;-49
2023/01/10 06:25:31;;;;;;;15.60;3.78;;;5.00;93.40;;;;;;5015253;28;20052;-52
2023/01/10 06:27:58;;;;;;;13.52;4.43;;;5.00;93.30;;;;;;5029709;28;20080;-52
2023/01/10 06:30:25;;;;;;;15.38;3.92;;;5.00;93.40;;;;;;5025845;28;20104;-53
2023/01/10 06:32:52;;;;;;;12.30;3.22;;;5.00;93.40;;;;;;5018730;28;20032;-54
2023/01/10 06:35:21;;;;;;;13.43;3.78;;;4.90;93.50;;;;;;5035836;28;20026;-55
2023/01/10 06:37:47;;;;;;;18.45;4.80;;;4.90;93.50;;;;;;5028142;28;20058;-52
2023/01/10 06:40:15;;;;;;;16.20;4.47;;;4.90;93.60;;;;;;5014756;28;20045;-56
2023/01/10 06:42:42;;;;;;;17.73;3.78;;;4.90;93.60;;;;;;5029025;28;20450;-54
2023/01/10 06:45:10;;;;;;;13.63;3.90;;;4.90;93.60;;;;;;5034331;28;20037;-55
2023/01/10 06:47:37;;;;;;;12.90;4.32;;;4.90;93.60;;;;;;5025216;28;20034;-54
2023/01/10 06:50:04;;;;;;;12.40;3.28;;;4.90;93.60;;;;;;5015666;28;20091;-54
2023/01/10 06:52:32;;;;;;;16.95;4.43;;;4.80;93.60;;;;;;5031500;28;20116;-56
2023/01/10 06:54:59;;;;;;;13.75;4.35;;;4.80;93.60;;;;;;5035449;28;20367;-51
2023/01/10 06:57:27;;;;;;;15.00;3.75;;;4.80;93.60;;;;;;5031583;28;20034;-55
2023/01/10 06:59:54;;;;;;;12.25;4.47;;;4.70;93.60;;;;;;5035413;28;20540;-53
2023/01/10 07:02:21;;;;;;;16.88;6.38;;;4.70;93.60;;;;;;5033496;28;20052;-56
2023/01/10 07:04:50;;;;;;;13.50;3.47;;;4.60;93.50;;;;;;5030645;28;20029;-56
2023/01/10 07:07:17;;;;;;;19.88;5.15;;;4.60;93.50;;;;;;5035117;28;20037;-51
2023/01/10 07:09:45;;;;;;;12.38;3.42;;;4.50;93.50;;;;;;5031943;28;20041;-55
2023/01/10 07:12:12;;;;;;;15.57;4.50;;;4.50;93.60;;;;;;5021722;28;20075;-53
2023/01/10 07:14:37;;;;;;;22.08;4.53;;;4.60;93.70;;;;;;5034529;28;20026;-54
2023/01/10 07:17:04;;;;;;;13.73;4.05;;;4.60;93.70;;;;;;5019023;28;20475;-56
2023/01/10 07:19:30;;;;;;;12.07;4.40;;;4.60;93.70;;;;;;5031560;28;20358;-55
2023/01/10 07:21:57;;;;;;;19.27;5.30;;;4.60;93.80;;;;;;5033693;28;20105;-51
2023/01/10 07:24:23;;;;;;;22.00;6.57;;;4.60;93.80;;;;;;5028958;28;20048;-55
2023/01/10 07:26:50;;;;;;;20.65;4.65;;;4.60;93.80;;;;;;5016338;28;20079;-52
2023/01/10 07:29:19;;;;;;;24.58;5.07;;;4.60;93.80;;;;;;5028655;28;20440;-56
2023/01/10 07:31:48;;;;;;;12.95;4.20;;;4.60;93.90;;;;;;5032456;28;20022;-52
2023/01/10 07:34:15;;;;;;;19.58;4.78;;;4.60;94.00;;;;;;5033087;28;20026;-56
2023/01/10 07:36:42;;;;;;;21.70;5.25;;;4.70;94.00;;;;;;5033705;28;20029;-56
2023/01/10 07:39:08;;;;;;;15.25;4.72;;;4.70;94.00;;;;;;5026827;28;20022;-55
2023/01/10 07:41:34;;;;;;;10.60;4.00;;;4.70;94.00;;;;;;5031984;28;20068;-56
2023/01/10 07:44:02;;;;;;;11.77;4.47;;;4.70;94.10;;;;;;5032628;28;20053;-54
2023/01/10 07:46:29;;;;;;;17.85;5.80;;;4.80;94.10;;;;;;5032918;28;20128;-55
2023/01/10 07:48:56;;;;;;;15.90;5.22;;;4.80;94.10;;;;;;5026534;28;20366;-60
2023/01/10 07:51:23;;;;;;;19.10;6.57;;;4.90;94.00;;;;;;5014662;28;20064;-61
2023/01/10 07:53:48;;;;;;;12.73;4.57;;;4.90;94.00;;;;;;5013737;28;20060;-61
2023/01/10 07:56:15;;;;;;;16.20;4.53;;;4.90;94.00;;;;;;5018489;28;20029;-61
2023/01/10 07:58:45;;;;;;;16.83;4.63;;;4.90;93.90;;;;;;5028950;28;20029;-61
2023/01/10 08:01:13;;;;;;;15.70;4.95;;;4.90;93.90;;;;;;5019174;28;20091;-61
2023/01/10 08:03:40;;;;;;;17.50;5.05;;;4.80;93.80;;;;;;5018404;28;20034;-60
2023/01/10 08:06:11;;;;;;;15.90;4.68;;;4.80;93.90;;;;;;5025915;28;20443;-60
2023/01/10 08:08:38;;;;;;;13.38;4.80;;;4.70;93.80;;;;;;5032732;28;20078;-60
2023/01/10 08:11:04;;;;;;;15.07;5.03;;;4.70;93.80;;;;;;5018459;28;20120;-59
2023/01/10 08:13:32;;;;;;;11.88;4.32;;;4.70;93.80;;;;;;5034055;28;20029;-60
2023/01/10 08:16:05;;;;;;;17.15;4.90;;;4.70;93.80;;;;;;5032667;28;20049;-59
2023/01/10 08:18:32;;;;;;;17.13;5.28;;;4.70;93.80;;;;;;5014157;28;20079;-60
2023/01/10 08:20:59;;;;;;;17.48;4.75;;;4.70;93.80;;;;;;5014088;28;20038;-60
2023/01/10 08:23:34;;;;;;;14.40;4.90;;;4.70;93.80;;;;;;5014705;28;20044;-59
2023/01/10 08:26:01;;;;;;;18.58;5.35;;;4.60;93.80;;;;;;5026763;28;20030;-59
2023/01/10 08:28:29;;;;;;;15.73;4.95;;;4.70;93.80;;;;;;5032386;28;20022;-59
2023/01/10 08:30:56;;;;;;;13.63;5.35;;;4.80;94.00;;;;;;5019227;28;20433;-59
2023/01/10 08:33:24;;;;;;;13.13;4.57;;;4.90;94.10;;;;;;5013565;28;20025;-59
2023/01/10 08:35:50;;;;;;;15.73;4.95;;;5.00;94.10;;;;;;5022746;28;20025;-58
2023/01/10 08:38:18;;;;;;;18.13;5.40;;;5.10;94.20;;;;;;5033447;28;20035;-57
2023/01/10 08:40:47;;;;;;;26.75;5.22;;;5.20;94.10;;;;;;5031087;28;20048;-57
2023/01/10 08:43:16;;;;;;;21.27;6.10;;;5.30;94.20;;;;;;5026454;28;20412;-57
2023/01/10 08:45:43;;;;;;;13.10;5.13;;;5.30;94.10;;;;;;5028864;28;20037;-58
2023/01/10 08:48:10;;;;;;;16.88;7.38;;;5.40;94.20;;;;;;5018238;28;20026;-58
2023/01/10 08:50:37;;;;;;;19.48;5.90;;;5.40;94.20;;;;;;5015048;28;20038;-57
2023/01/10 08:53:04;;;;;;;13.82;6.03;;;5.50;94.20;;;;;;5013577;28;20033;-55
2023/01/10 08:55:34;;;;;;;23.08;6.15;;;5.50;94.20;;;;;;5013064;28;20030;-54
2023/01/10 08:58:00;;;;;;;18.33;5.85;;;5.60;94.20;;;;;;5024998;28;20550;-52
2023/01/10 09:00:27;;;;;;;16.92;5.80;;;5.70;94.20;;;;;;5030309;28;20417;-52
2023/01/10 09:02:53;;;;;;;15.18;5.00;;;5.70;94.10;;;;;;5029692;28;20366;-55
2023/01/10 09:05:20;;;;;;;14.38;4.90;;;5.70;93.90;;;;;;5031133;28;20031;-55
2023/01/10 09:07:48;;;;;;;11.90;4.78;;;5.60;93.90;;;;;;5030470;28;20033;-54
2023/01/10 09:10:17;;;;;;;15.93;4.30;;;5.60;93.80;;;;;;5018495;28;20050;-56
2023/01/10 09:12:53;;;;;;;15.82;5.03;;;5.50;93.80;;;;;;5032237;28;20029;-56
2023/01/10 09:15:31;;;;;;;15.68;4.65;;;5.50;93.70;;;;;;5033579;28;20101;-56
2023/01/10 09:18:01;;;;;;;15.32;4.32;;;5.50;93.70;;;;;;5033158;28;20029;-54
2023/01/10 09:20:28;;;;;;;18.75;4.70;;;5.50;93.70;;;;;;5033395;28;20041;-51
2023/01/10 09:22:56;;;;;;;12.98;4.28;;;5.40;93.70;;;;;;5028050;28;20022;-55
2023/01/10 09:25:24;;;;;;;14.35;4.85;;;5.40;93.70;;;;;;5030501;28;20029;-53
2023/01/10 09:27:59;;;;;;;14.25;5.03;;;5.50;93.70;;;;;;5022880;28;20029;-51
2023/01/10 09:30:28;;;;;;;16.35;4.75;;;5.40;93.70;;;;;;5033547;28;20026;-56
2023/01/10 09:32:55;;;;;;;9.38;3.53;;;5.40;93.70;;;;;;5033178;28;20459;-56
2023/01/10 09:35:23;;;;;;;18.27;5.53;;;5.40;93.70;;;;;;5031558;28;20041;-55
2023/01/10 09:37:54;;;;;;;18.70;5.03;;;5.50;93.80;;;;;;5033061;28;20129;-52
2023/01/10 09:40:45;;;;;;;16.50;4.95;;;5.50;93.90;;;;;;5027779;28;20104;-55
2023/01/10 09:43:35;;;;;;;17.85;5.43;;;5.60;93.90;;;;;;5033110;28;20055;-53
2023/01/10 09:46:18;;;;;;;9.95;4.63;;;5.70;93.90;;;;;;5030339;28;20037;-53
2023/01/10 09:49:05;;;;;;;13.50;5.65;;;5.90;94.00;;;;;;5030037;28;20032;-53
2023/01/10 09:51:47;;;;;;;11.95;5.35;;;5.90;94.00;;;;;;5021725;28;20474;-51
2023/01/10 09:54:27;;;;;;;17.33;5.53;;;6.10;94.00;;;;;;5032984;28;20030;-50
2023/01/10 09:56:54;;;;;;;16.60;5.88;;;6.10;93.90;;;;;;5029523;28;20026;-51
2023/01/10 09:59:31;;;;;;;18.40;6.18;;;6.20;93.90;;;;;;5025460;28;20045;-53
2023/01/10 10:02:13;;;;;;;24.33;6.47;;;6.20;93.90;;;;;;5035307;28;20049;-50
2023/01/10 10:04:40;;;;;;;21.48;6.65;;;6.40;93.90;;;;;;5033278;28;20036;-48
2023/01/10 10:07:13;;;;;;;20.80;7.65;;;6.40;93.90;;;;;;5035964;28;20525;-47
2023/01/10 10:09:42;;;;;;;27.67;7.38;;;6.50;93.90;;;;;;5021356;28;20037;-49
2023/01/10 10:12:42;;;;;;;28.10;6.75;;;6.50;93.80;;;;;;5035996;28;20083;-49
2023/01/10 10:15:45;;;;;;;23.73;7.43;;;6.50;93.70;;;;;;5027219;28;20046;-46
2023/01/10 10:18:30;;;;;;;25.38;9.35;;;6.60;93.70;;;;;;5016056;28;20352;-48
2023/01/10 10:21:48;;;;;;;19.98;7.10;;;6.60;93.50;;;;;;5030218;28;20456;-46
2023/01/10 10:24:51;;;;;;;16.08;6.55;;;6.70;93.60;;;;;;5015331;28;20531;-48
2023/01/10 10:27:43;;;;;;;24.23;7.75;;;6.80;93.60;;;;;;5015296;28;20026;-47
2023/01/10 10:30:41;;;;;;;30.23;8.70;;;6.90;93.50;;;;;;5024726;28;20512;-46
2023/01/10 10:33:27;;;;;;;24.50;8.82;;;6.90;93.40;;;;;;5034952;28;20453;-47
2023/01/10 10:36:10;;;;;;;33.00;7.88;;;6.90;93.40;;;;;;5019786;28;20375;-49
2023/01/10 10:38:43;;;;;;;20.85;7.72;;;7.00;93.40;;;;;;5016224;28;20050;-43
2023/01/10 10:41:35;;;;;;;26.52;7.53;;;7.00;93.20;;;;;;5025704;28;20030;-43
2023/01/10 10:44:32;;;;;;;29.75;9.15;;;7.00;93.10;;;;;;5015986;28;20407;-45
2023/01/10 10:46:59;;;;;;;20.73;7.13;;;7.00;93.10;;;;;;5015869;28;20351;-50
2023/01/10 10:49:58;;;;;;;20.85;6.95;;;7.10;93.00;;;;;;5033117;28;20029;-46
2023/01/10 10:52:43;;;;;;;21.67;7.32;;;7.10;93.00;;;;;;5027473;28;20052;-43
2023/01/10 10:55:17;;;;;;;22.02;8.68;;;7.20;92.90;;;;;;5032896;28;20026;-44
2023/01/10 10:57:45;;;;;;;24.90;6.95;;;7.20;92.80;;;;;;5033893;28;20037;-44
2023/01/10 11:00:21;;;;;;;18.85;6.90;;;7.20;92.50;;;;;;5022384;28;20052;-44
2023/01/10 11:02:54;;;;;;;16.95;7.03;;;7.20;92.50;;;;;;5035473;28;20045;-45
2023/01/10 11:05:30;;;;;;;24.08;7.78;;;7.30;92.50;;;;;;5033675;28;20033;-48
2023/01/10 11:08:05;;;;;;;20.75;9.32;;;7.30;92.30;;;;;;5016658;28;20892;-44
2023/01/10 11:10:35;;;;;;;17.42;6.45;;;7.30;92.10;;;;;;5032819;28;20067;-48
2023/01/10 11:13:23;;;;;;;23.55;7.22;;;7.40;92.10;;;;;;5023337;28;20458;-47
2023/01/10 11:15:50;;;;;;;20.90;6.63;;;7.40;92.00;;;;;;5034883;28;20747;-43
2023/01/10 11:18:20;;;;;;;23.75;5.53;;;7.40;91.90;;;;;;5033802;28;20022;-42
2023/01/10 11:20:59;;;;;;;16.92;5.95;;;7.50;91.80;;;;;;5022711;28;20026;-46
2023/01/10 11:23:51;;;;;;;20.73;5.47;;;7.50;91.50;;;;;;5031413;28;20072;-46
2023/01/10 11:26:39;;;;;;;13.13;5.20;;;7.60;91.30;;;;;;5020136;28;20050;-48
2023/01/10 11:29:14;;;;;;;17.88;5.50;;;7.60;91.20;;;;;;5013983;28;20082;-47
2023/01/10 11:31:41;;;;;;;18.45;5.30;;;7.60;90.90;;;;;;5014134;28;20018;-45
2023/01/10 11:34:36;;;;;;;20.63;6.13;;;7.60;90.60;;;;;;5014869;28;20033;-45
2023/01/10 11:37:27;;;;;;;18.55;4.70;;;7.50;90.40;;;;;;5016794;28;20038;-44
2023/01/10 11:40:31;;;;;;;22.52;5.95;;;7.50;90.40;;;;;;5015588;28;20029;-43
2023/01/10 11:42:59;;;;;;;17.00;5.00;;;7.40;90.20;;;;;;5025333;28;20102;-43
2023/01/10 11:45:30;;;;;;;22.05;5.60;;;7.50;90.20;;;;;;5033349;28;20067;-46
2023/01/10 11:48:21;;;;;;;17.10;3.53;;;7.40;90.00;;;;;;5030379;28;20071;-45
2023/01/10 11:50:53;;;;;;;13.57;4.78;;;7.40;89.90;;;;;;5015425;28;20034;-44
2023/01/10 11:53:41;;;;;;;10.27;3.80;;;7.40;89.90;;;;;;5032084;28;20133;-45
2023/01/10 11:56:14;;;;;;;16.83;4.40;;;7.40;89.90;;;;;;5015333;28;20356;-44
2023/01/10 11:58:47;;;;;;;14.07;3.88;;;7.40;89.80;;;;;;5014725;28;20084;-48
2023/01/10 12:01:37;;;;;;;14.05;4.03;;;7.40;89.60;;;;;;5025834;28;20049;-48
2023/01/10 12:04:03;;;;;;;;;;;7.40;89.60;;;;;;5023999;28;20053;-45
2023/01/10 12:06:31;;;;;;;16.38;5.60;;;7.30;89.20;;;;;;5028550;28;19952;-50
2023/01/10 12:08:57;;;;;;;17.58;4.28;;;7.40;89.10;;;;;;5031832;28;20602;-47
2023/01/10 12:11:29;;;;;;;15.23;3.70;;;7.40;89.20;;;;;;5028572;28;20112;-48
2023/01/10 12:13:59;;;;;;;13.27;3.20;;;7.40;89.20;;;;;;5030674;28;20041;-46
2023/01/10 12:16:33;;;;;;;11.10;3.28;;;7.40;88.90;;;;;;5033076;28;20057;-45
2023/01/10 12:19:05;;;;;;;15.43;3.65;;;7.40;89.00;;;;;;5028366;28;20038;-45
2023/01/10 12:21:37;;;;;;;18.02;5.13;;;7.40;88.90;;;;;;5014904;28;20107;-44
2023/01/10 12:24:23;;;;;;;11.55;3.47;;;7.40;88.90;;;;;;5033972;28;20048;-45
2023/01/10 12:26:52;;;;;;;10.98;4.00;;;7.40;89.00;;;;;;5022534;28;20022;-49
2023/01/10 12:29:42;;;;;;;16.83;5.87;;;7.40;88.90;;;;;;5020955;28;20021;-45
2023/01/10 12:32:26;;;;;;;21.00;5.22;;;7.40;89.10;;;;;;5031252;28;20105;-43
2023/01/10 12:35:09;;;;;;;16.83;4.13;;;7.40;89.30;;;;;;5030712;28;20033;-48
2023/01/10 12:37:54;;;;;;;20.27;4.30;;;7.40;89.40;;;;;;5030694;28;20030;-46
2023/01/10 12:40:36;;;;;;;16.65;4.45;;;7.40;89.10;;;;;;5015079;28;20689;-45
2023/01/10 12:46:43;;;;;;;23.85;4.75;;;7.40;89.30;;;;;;5031375;28;20163;-45
2023/01/10 12:49:33;;;;;;;16.85;5.13;;;7.40;89.30;;;;;;5033988;28;20026;-46
2023/01/10 12:52:09;;;;;;;17.90;3.80;;;7.40;89.10;;;;;;5031790;28;20060;-45
2023/01/10 12:54:36;;;;;;;15.90;4.95;;;7.40;89.20;;;;;;5033755;28;20470;-47
2023/01/10 12:57:31;;;;;;;19.98;5.90;;;7.30;89.00;;;;;;5032823;28;20033;-45
2023/01/10 13:00:02;;;;;;;17.70;5.25;;;7.40;89.00;;;;;;5013669;28;20359;-47
2023/01/10 13:02:36;;;;;;;21.10;5.53;;;7.40;89.10;;;;;;5013626;28;20045;-45
2023/01/10 13:05:04;;;;;;;12.25;4.63;;;7.40;89.00;;;;;;5019667;28;20030;-43
2023/01/10 13:07:34;;;;;;;18.50;5.10;;;7.40;89.00;;;;;;5027900;28;20454;-45
2023/01/10 13:10:08;;;;;;;18.25;5.53;;;7.40;89.00;;;;;;5013484;28;20076;-47
2023/01/10 13:12:44;;;;;;;22.67;6.13;;;7.30;89.00;;;;;;5032411;28;20367;-47
2023/01/10 13:15:29;;;;;;;16.73;6.22;;;7.30;89.00;;;;;;5027485;28;20061;-45
2023/01/10 13:18:15;;;;;;;18.10;6.18;;;7.30;88.90;;;;;;5013283;28;20018;-49
2023/01/10 13:20:42;;;;;;;12.95;4.55;;;7.30;88.80;;;;;;5025552;28;20043;-47
2023/01/10 13:23:20;;;;;;;23.15;6.13;;;7.30;88.90;;;;;;5030020;28;20033;-50
2023/01/10 13:26:08;;;;;;;22.63;5.85;;;7.20;88.90;;;;;;5032406;28;20145;-46
2023/01/10 13:28:57;;;;;;;13.15;4.10;;;7.20;88.60;;;;;;5027421;28;20096;-47
2023/01/10 13:31:32;;;;;;;19.75;4.47;;;7.20;88.80;;;;;;5031373;28;20034;-45